Melanie-h+melanie — KVB — position and weather

sailwx.info

Track history (hours):
 
Tides and Currents Weather Stations Pressure Air Temp Water Temp Dewpoint Dewpoint Depression Visibility Wind Speed Wind Dir Waves Ship Positions

Melanie-h+melanie

Last reported at 2017-Dec-17 23:00 UTC. Time now 2017-Dec-17 23:23 UTC.
Position N 47°28' E 019°04'.

Length 172 m; draft 1.4 m.

Type: Ship. MMSI: 243071713.

Date/timePositionNaut miles runAvg speedWind from/ knotsBaromVisibWave heightAir tempDewpointWater temp
2017-Dec-17 23:00N 47°28' E 019°04'0 0.0
2017-Dec-17 22:30N 47°28' E 019°04'0 0.0
2017-Dec-17 22:00N 47°28' E 019°04'0 0.0
2017-Dec-17 21:30N 47°28' E 019°04'0 0.0
2017-Dec-17 21:00N 47°28' E 019°04'0 0.0
2017-Dec-17 20:30N 47°28' E 019°04'0 0.0
2017-Dec-17 20:00N 47°28' E 019°04'0 0.0
2017-Dec-17 19:28N 47°28' E 019°04'0 0.0
2017-Dec-17 19:00N 47°28' E 019°04'0 0.0
2017-Dec-17 18:30N 47°28' E 019°04'0 0.0
2017-Dec-17 18:00N 47°28' E 019°04'0 0.0
2017-Dec-17 17:30N 47°28' E 019°04'0 0.0
2017-Dec-17 17:00N 47°28' E 019°04'0 0.0
2017-Dec-17 16:30N 47°28' E 019°04'0 0.0
2017-Dec-17 16:00N 47°28' E 019°04'0 0.0
2017-Dec-17 15:30N 47°28' E 019°04'0 0.1
2017-Dec-17 15:00N 47°28' E 019°04'3 6.7
2017-Dec-17 14:30N 47°31' E 019°02'510.3
2017-Dec-17 13:59N 47°36' E 019°05'56 7.6
2017-Dec-17 06:34N 47°45' E 017°43'1 9.0
2017-Dec-17 06:30N 47°46' E 017°42'5 9.9
2017-Dec-17 06:00N 47°49' E 017°37'3 6.7
2017-Dec-17 05:30N 47°52' E 017°34'0 0.0
2017-Dec-17 05:00N 47°52' E 017°34'0 0.0
2017-Dec-17 04:30N 47°52' E 017°34'0 0.0
2017-Dec-17 04:00N 47°52' E 017°34'0 0.0
2017-Dec-17 03:30N 47°52' E 017°34'0 0.0
2017-Dec-17 03:00N 47°52' E 017°34'0 0.0
2017-Dec-17 02:30N 47°52' E 017°34'0 0.0
2017-Dec-17 02:00N 47°52' E 017°34'0 0.0
2017-Dec-17 01:30N 47°52' E 017°34'0 0.0
2017-Dec-17 01:00N 47°52' E 017°34'0 0.0
2017-Dec-17 00:30N 47°52' E 017°34'0 0.0
2017-Dec-17 00:00N 47°52' E 017°34'0 0.0
2017-Dec-16 23:30N 47°52' E 017°34'0 0.0
2017-Dec-16 23:00N 47°52' E 017°34'1 1.2
2017-Dec-16 22:30N 47°52' E 017°33'1 1.8
2017-Dec-16 22:00N 47°53' E 017°32'0 1.0
2017-Dec-16 21:30N 47°53' E 017°32'2 4.9
2017-Dec-16 21:00N 47°55' E 017°29'4 8.4
2017-Dec-16 20:30N 47°58' E 017°25'5 9.3
2017-Dec-16 20:00N 48°00' E 017°18'5 9.4
2017-Dec-16 19:30N 48°03' E 017°13'5 9.7
2017-Dec-16 19:00N 48°07' E 017°08'4 8.4
2017-Dec-16 18:30N 48°08' E 017°03'4 8.3
2017-Dec-16 18:00N 48°09' E 016°56'710.8
2017-Dec-16 17:24N 48°07' E 016°47'1211.0
2017-Dec-16 16:16N 48°10' E 016°29'0 1.1
2017-Dec-16 15:56N 48°11' E 016°29'  
Track history (hours):
 
Tides and Currents Weather Stations Pressure Air Temp Water Temp Dewpoint Dewpoint Depression Visibility Wind Speed Wind Dir Waves Ship Positions

Melanie-h+melanie

Last reported at 2017-Dec-17 23:00 UTC. Time now 2017-Dec-17 23:23 UTC.
Position N 47°28' E 019°04'.

Length 172 m; draft 1.4 m.

Type: Ship. MMSI: 243071713.

Date/timePositionNaut miles runAvg speedWind from/ knotsBaromVisibWave heightAir tempDewpointWater temp
2017-Dec-17 23:00N 47°28' E 019°04'0 0.0
2017-Dec-17 22:30N 47°28' E 019°04'0 0.0
2017-Dec-17 22:00N 47°28' E 019°04'0 0.0
2017-Dec-17 21:30N 47°28' E 019°04'0 0.0
2017-Dec-17 21:00N 47°28' E 019°04'0 0.0
2017-Dec-17 20:30N 47°28' E 019°04'0 0.0
2017-Dec-17 20:00N 47°28' E 019°04'0 0.0
2017-Dec-17 19:28N 47°28' E 019°04'0 0.0
2017-Dec-17 19:00N 47°28' E 019°04'0 0.0
2017-Dec-17 18:30N 47°28' E 019°04'0 0.0
2017-Dec-17 18:00N 47°28' E 019°04'0 0.0
2017-Dec-17 17:30N 47°28' E 019°04'0 0.0
2017-Dec-17 17:00N 47°28' E 019°04'0 0.0
2017-Dec-17 16:30N 47°28' E 019°04'0 0.0
2017-Dec-17 16:00N 47°28' E 019°04'0 0.0
2017-Dec-17 15:30N 47°28' E 019°04'0 0.1
2017-Dec-17 15:00N 47°28' E 019°04'3 6.7
2017-Dec-17 14:30N 47°31' E 019°02'510.3
2017-Dec-17 13:59N 47°36' E 019°05'56 7.6
2017-Dec-17 06:34N 47°45' E 017°43'1 9.0
2017-Dec-17 06:30N 47°46' E 017°42'5 9.9
2017-Dec-17 06:00N 47°49' E 017°37'3 6.7
2017-Dec-17 05:30N 47°52' E 017°34'0 0.0
2017-Dec-17 05:00N 47°52' E 017°34'0 0.0
2017-Dec-17 04:30N 47°52' E 017°34'0 0.0
2017-Dec-17 04:00N 47°52' E 017°34'0 0.0
2017-Dec-17 03:30N 47°52' E 017°34'0 0.0
2017-Dec-17 03:00N 47°52' E 017°34'0 0.0
2017-Dec-17 02:30N 47°52' E 017°34'0 0.0
2017-Dec-17 02:00N 47°52' E 017°34'0 0.0
2017-Dec-17 01:30N 47°52' E 017°34'0 0.0
2017-Dec-17 01:00N 47°52' E 017°34'0 0.0
2017-Dec-17 00:30N 47°52' E 017°34'0 0.0
2017-Dec-17 00:00N 47°52' E 017°34'0 0.0
2017-Dec-16 23:30N 47°52' E 017°34'0 0.0
2017-Dec-16 23:00N 47°52' E 017°34'1 1.2
2017-Dec-16 22:30N 47°52' E 017°33'1 1.8
2017-Dec-16 22:00N 47°53' E 017°32'0 1.0
2017-Dec-16 21:30N 47°53' E 017°32'2 4.9
2017-Dec-16 21:00N 47°55' E 017°29'4 8.4
2017-Dec-16 20:30N 47°58' E 017°25'5 9.3
2017-Dec-16 20:00N 48°00' E 017°18'5 9.4
2017-Dec-16 19:30N 48°03' E 017°13'5 9.7
2017-Dec-16 19:00N 48°07' E 017°08'4 8.4
2017-Dec-16 18:30N 48°08' E 017°03'4 8.3
2017-Dec-16 18:00N 48°09' E 016°56'710.8
2017-Dec-16 17:24N 48°07' E 016°47'1211.0
2017-Dec-16 16:16N 48°10' E 016°29'0 1.1
2017-Dec-16 15:56N 48°11' E 016°29'  

Dump ship's entire track history